createdAt,value
2017-06-03T00:04:24.974Z,0
2017-06-03T00:09:20.928Z,0
2017-06-03T00:14:16.557Z,0
2017-06-03T00:19:14.521Z,0
2017-06-03T00:24:09.986Z,0
2017-06-03T00:29:07.052Z,0
2017-06-03T00:34:02.645Z,0
2017-06-03T00:38:59.558Z,0
2017-06-03T00:43:55.403Z,0
2017-06-03T00:48:51.339Z,0
2017-06-03T00:53:48.277Z,0
2017-06-03T00:58:43.783Z,0
2017-06-03T01:03:40.612Z,0
2017-06-03T01:08:36.587Z,0
2017-06-03T01:13:32.526Z,0
2017-06-03T01:18:28.501Z,0
2017-06-03T01:23:24.350Z,0
2017-06-03T01:28:21.794Z,0
2017-06-03T01:33:17.450Z,0
2017-06-03T01:38:13.643Z,0
2017-06-03T01:43:09.281Z,0
2017-06-03T01:48:05.118Z,0
2017-06-03T01:53:01.984Z,0
2017-06-03T01:57:57.574Z,0
2017-06-03T02:02:53.624Z,0
2017-06-03T02:07:49.652Z,0
2017-06-03T02:12:46.526Z,0
2017-06-03T02:17:42.179Z,0
2017-06-03T02:22:38.074Z,0
2017-06-03T02:27:35.002Z,0
2017-06-03T02:32:32.100Z,0
2017-06-03T02:37:27.474Z,0
2017-06-03T02:42:23.796Z,4
2017-06-03T02:47:20.749Z,4
2017-06-03T02:52:16.809Z,8
2017-06-03T02:57:12.707Z,12
2017-06-03T03:02:08.556Z,16
2017-06-03T03:07:05.520Z,28
2017-06-03T03:12:02.222Z,32
2017-06-03T03:16:57.764Z,52
2017-06-03T03:21:53.829Z,68
2017-06-03T03:26:49.727Z,92
2017-06-03T03:31:45.715Z,104
2017-06-03T03:36:41.564Z,140
2017-06-03T03:41:37.431Z,136
2017-06-03T03:46:34.515Z,132
2017-06-03T03:51:30.353Z,124
2017-06-03T03:56:26.417Z,108
2017-06-03T04:01:23.374Z,124
2017-06-03T04:06:19.055Z,180
2017-06-03T04:11:14.889Z,248
2017-06-03T04:16:11.762Z,392
2017-06-03T04:21:07.775Z,392
2017-06-03T04:26:03.570Z,324
2017-06-03T04:30:59.381Z,264
2017-06-03T04:35:55.157Z,320
2017-06-03T04:40:50.987Z,392
2017-06-03T04:45:47.694Z,440
2017-06-03T04:50:44.535Z,488
2017-06-03T04:55:40.072Z,524
2017-06-03T05:00:36.003Z,536
2017-06-03T05:05:31.828Z,576
2017-06-03T05:10:27.663Z,656
2017-06-03T05:15:23.604Z,1328
2017-06-03T05:20:19.595Z,1852
2017-06-03T05:25:15.682Z,2596
2017-06-03T05:30:11.918Z,2364
2017-06-03T05:35:08.030Z,2312
2017-06-03T05:40:04.065Z,1944
2017-06-03T05:45:00.235Z,2236
2017-06-03T05:49:57.405Z,2188
2017-06-03T05:54:54.043Z,2248
2017-06-03T05:59:50.444Z,3252
2017-06-03T06:04:46.437Z,4756
2017-06-03T06:09:42.506Z,4532
2017-06-03T06:14:38.488Z,3360
2017-06-03T06:19:34.890Z,3160
2017-06-03T06:24:31.931Z,3880
2017-06-03T06:29:27.755Z,4980
2017-06-03T06:34:23.856Z,5304
2017-06-03T06:39:20.067Z,5292
2017-06-03T06:44:16.084Z,4660
2017-06-03T06:49:12.946Z,3804
2017-06-03T06:54:09.154Z,3004
2017-06-03T06:59:05.229Z,3668
2017-06-03T07:04:00.890Z,3732
2017-06-03T07:08:57.368Z,3636
2017-06-03T07:13:54.591Z,4704
2017-06-03T07:18:50.472Z,5568
2017-06-03T07:23:46.528Z,4592
2017-06-03T07:28:42.598Z,2660
2017-06-03T07:33:39.005Z,2200
2017-06-03T07:38:35.546Z,2276
2017-06-03T07:43:32.142Z,1896
2017-06-03T07:48:27.832Z,2084
2017-06-03T07:53:24.792Z,3008
2017-06-03T07:58:20.385Z,4448
2017-06-03T08:03:16.371Z,4616
2017-06-03T08:08:12.435Z,5732
2017-06-03T08:13:08.767Z,7992
2017-06-03T08:18:04.926Z,10912
2017-06-03T08:23:02.516Z,8760
2017-06-03T08:27:58.520Z,14288
2017-06-03T08:32:54.974Z,13540
2017-06-03T08:37:51.382Z,17888
2017-06-03T08:42:48.164Z,22272
2017-06-03T08:47:46.478Z,55648
2017-06-03T08:52:45.120Z,56320
2017-06-03T08:57:42.588Z,31200
2017-06-03T09:02:39.395Z,35840
2017-06-03T09:07:36.744Z,58368
2017-06-03T09:12:33.963Z,76320
2017-06-03T09:17:30.914Z,51648
2017-06-03T09:22:28.438Z,62752
2017-06-03T09:27:24.524Z,72192
2017-06-03T09:32:20.845Z,70784
2017-06-03T09:37:18.358Z,76256
2017-06-03T09:42:14.444Z,65088
2017-06-03T09:47:10.405Z,66368
2017-06-03T09:52:07.072Z,66880
2017-06-03T09:57:02.474Z,59296
2017-06-03T10:01:59.849Z,58144
2017-06-03T10:06:55.582Z,54048
2017-06-03T10:11:52.828Z,54528
2017-06-03T10:16:48.101Z,51968
2017-06-03T10:21:44.144Z,43104
2017-06-03T10:26:39.538Z,49152
2017-06-03T10:31:35.732Z,37632
2017-06-03T10:36:32.030Z,45984
2017-06-03T10:41:29.756Z,55872
2017-06-03T10:46:25.782Z,41792
2017-06-03T10:51:22.239Z,37248
2017-06-03T10:56:19.233Z,40192
2017-06-03T11:01:17.010Z,40512
2017-06-03T11:06:12.682Z,43904
2017-06-03T11:11:09.451Z,54496
2017-06-03T11:16:06.464Z,57888
2017-06-03T11:21:01.570Z,55968
2017-06-03T11:25:58.573Z,63072
2017-06-03T11:30:55.269Z,19488
2017-06-03T11:35:50.271Z,41152
2017-06-03T11:40:45.870Z,79296
2017-06-03T11:45:43.688Z,50912
2017-06-03T11:50:39.997Z,57824
2017-06-03T11:55:36.274Z,49120
2017-06-03T12:00:32.670Z,38784
2017-06-03T12:05:29.134Z,49984
2017-06-03T12:10:26.430Z,43200
2017-06-03T12:15:22.753Z,49472
2017-06-03T12:20:19.814Z,56448
2017-06-03T12:25:16.479Z,59456
2017-06-03T12:30:11.755Z,63744
2017-06-03T12:35:08.969Z,54624
2017-06-03T12:40:04.779Z,34240
2017-06-03T12:45:02.097Z,38080
2017-06-03T12:49:57.737Z,15520
2017-06-03T12:54:52.027Z,10952
2017-06-03T12:59:47.973Z,11940
2017-06-03T13:04:43.010Z,11284
2017-06-03T13:09:38.272Z,10372
2017-06-03T13:14:34.046Z,11192
2017-06-03T13:19:30.000Z,11368
2017-06-03T13:24:25.790Z,11776
2017-06-03T13:29:21.608Z,16448
2017-06-03T13:34:18.009Z,14116
2017-06-03T13:39:13.969Z,30784
2017-06-03T13:44:11.739Z,47840
2017-06-03T13:49:09.298Z,47424
2017-06-03T13:54:05.246Z,32384
2017-06-03T13:59:01.199Z,11812
2017-06-03T14:03:56.801Z,6524
2017-06-03T14:08:53.303Z,6696
2017-06-03T14:13:48.390Z,6600
2017-06-03T14:18:44.072Z,8024
2017-06-03T14:23:39.941Z,8692
2017-06-03T14:28:37.100Z,9048
2017-06-03T14:33:32.887Z,9960
2017-06-03T14:38:29.964Z,8916
2017-06-03T14:43:26.702Z,6320
2017-06-03T14:48:23.315Z,5536
2017-06-03T14:53:19.157Z,4404
2017-06-03T14:58:14.790Z,3436
2017-06-03T15:03:10.296Z,5064
2017-06-03T15:08:06.461Z,7668
2017-06-03T15:13:02.941Z,8428
2017-06-03T15:18:00.069Z,8012
2017-06-03T15:22:58.016Z,7316
2017-06-03T15:27:53.644Z,10176
2017-06-03T15:32:50.928Z,9272
2017-06-03T15:37:46.865Z,9732
2017-06-03T15:42:42.819Z,9740
2017-06-03T15:47:39.860Z,8336
2017-06-03T15:52:36.543Z,7404
2017-06-03T15:57:33.191Z,5228
2017-06-03T16:02:28.720Z,4272
2017-06-03T16:07:24.614Z,4320
2017-06-03T16:12:20.366Z,3576
2017-06-03T16:17:17.391Z,3064
2017-06-03T16:22:12.837Z,2936
2017-06-03T16:27:08.700Z,3204
2017-06-03T16:32:04.431Z,3688
2017-06-03T16:37:00.247Z,3832
2017-06-03T16:41:56.692Z,3836
2017-06-03T16:46:53.482Z,4332
2017-06-03T16:51:49.950Z,4532
2017-06-03T16:56:45.790Z,4580
2017-06-03T17:01:41.898Z,4800
2017-06-03T17:06:37.768Z,4784
2017-06-03T17:11:34.971Z,4484
2017-06-03T17:16:30.939Z,4244
2017-06-03T17:21:27.964Z,4216
2017-06-03T17:26:24.534Z,4064
2017-06-03T17:31:20.175Z,3784
2017-06-03T17:36:16.216Z,3432
2017-06-03T17:41:13.089Z,3200
2017-06-03T17:46:09.093Z,3084
2017-06-03T17:51:05.890Z,2796
2017-06-03T17:56:01.715Z,2536
2017-06-03T18:00:57.966Z,2348
2017-06-03T18:05:55.322Z,2060
2017-06-03T18:10:51.314Z,1732
2017-06-03T18:15:47.193Z,1484
2017-06-03T18:20:42.864Z,1332
2017-06-03T18:25:38.702Z,1296
2017-06-03T18:30:34.386Z,1284
2017-06-03T18:35:30.684Z,1168
2017-06-03T18:40:26.869Z,968
2017-06-03T18:45:22.679Z,676
2017-06-03T18:50:18.539Z,420
2017-06-03T18:55:15.276Z,292
2017-06-03T19:00:11.317Z,224
2017-06-03T19:05:07.092Z,176
2017-06-03T19:10:05.402Z,128
2017-06-03T19:15:00.678Z,96
2017-06-03T19:19:56.783Z,88
2017-06-03T19:24:52.526Z,80
2017-06-03T19:29:48.589Z,72
2017-06-03T19:34:45.790Z,56
2017-06-03T19:39:41.460Z,40
2017-06-03T19:44:38.256Z,24
2017-06-03T19:49:33.838Z,16
2017-06-03T19:54:30.830Z,16
2017-06-03T19:59:26.475Z,12
2017-06-03T20:04:22.338Z,4
2017-06-03T20:09:18.098Z,4
2017-06-03T20:14:14.236Z,4
2017-06-03T20:19:09.996Z,0
2017-06-03T20:24:06.802Z,0
2017-06-03T20:29:02.388Z,0
2017-06-03T20:33:58.444Z,0
2017-06-03T20:38:54.586Z,0
2017-06-03T20:43:52.441Z,0
2017-06-03T20:48:51.021Z,0
2017-06-03T20:53:47.315Z,0
2017-06-03T20:58:43.863Z,0
2017-06-03T21:03:41.511Z,0
2017-06-03T21:08:36.784Z,0
2017-06-03T21:13:32.596Z,0
2017-06-03T21:18:29.454Z,0
2017-06-03T21:23:27.223Z,0
2017-06-03T21:28:22.698Z,0
2017-06-03T21:33:19.685Z,0
2017-06-03T21:38:15.068Z,0
2017-06-03T21:43:11.378Z,0
2017-06-03T21:48:07.718Z,0
2017-06-03T21:53:03.336Z,0
2017-06-03T21:57:59.672Z,0
2017-06-03T22:02:57.161Z,0
2017-06-03T22:07:52.834Z,0
2017-06-03T22:12:49.684Z,0
2017-06-03T22:17:45.622Z,0
2017-06-03T22:22:41.455Z,0
2017-06-03T22:27:37.486Z,0
2017-06-03T22:32:33.606Z,0
2017-06-03T22:37:29.481Z,0
2017-06-03T22:42:26.483Z,0
2017-06-03T22:47:22.022Z,0
2017-06-03T22:52:17.916Z,0
2017-06-03T22:57:14.951Z,0
2017-06-03T23:02:10.692Z,0
2017-06-03T23:07:06.887Z,0
2017-06-03T23:12:02.850Z,0
2017-06-03T23:16:58.517Z,0
2017-06-03T23:21:54.325Z,0
2017-06-03T23:26:50.529Z,0
2017-06-03T23:31:46.187Z,0
2017-06-03T23:36:43.130Z,0
2017-06-03T23:41:38.706Z,0
2017-06-03T23:46:34.430Z,0
2017-06-03T23:51:30.751Z,0
2017-06-03T23:56:28.059Z,0
